Pagina principale
METAR-TAF:

METAR-TAF

Aeroporti :

Aeroporto di Latina

Latina, Italia

latitudine: 41-33N, longitudine: 012-54E, altezza: 25 m

Osservazione

Il bollettino è stato emesso 37 minuti fa, alle 12:55 UTC
Vento 11 kt da est/sud-est
Temperature 12°C
Umidità 76%
Pressione 1017 hPa
Visibilità 10 km o più
Poco nuvoloso ad un'altezza di 2000 ft
Nuvoloso ad un'altezza di 2500 ft
pioggia debole

METAR: LIRL 171255Z 12011KT 9999 -RA FEW020 BKN025 12/08 Q1017 RMK OVC MON CLD CIME NC VIS MIN 9999 WIND THR12 13010KT WIND THR30 13009KT BLU

Ora: 14:32 (13:32 UTC)

Previsione

Il bollettino è stato emesso 2 ore e 32 minuti fa, alle 11:00 UTC
Previsione valida dal 17 alle 12 UTC al 17 alle 21 UTC
Vento 15 kt da sud-est
Visibilità 10 km o più
Nubi sparse ad un'altezza di 2200 ft
Nuvoloso ad un'altezza di 5000 ft
Temporaneamente
dal 17 alle 12 UTC al 17 alle 15 UTC
Nuvoloso ad un'altezza di 2000 ft
pioggia

TAF: LIRL 171100Z 1712/1721 13015KT 9999 SCT022 BKN050 TEMPO 1712/1715 RA BKN020

Osservazioni e previsioni meteorologiche di più di 4000 aeroporti (messaggi METAR e TAF).

Le stazioni disponibili sono rappresentate dai dischi gialli e rossi sulla carta.

Puntare il mouse per vedere il nome della stazione.

Clicca sopra per visualizzare le osservazioni e previsioni meteorologiche.

Per cambiare la mappa : fare clic sui pulsanti verdi con una croce nera per ingrandire, il pulsante verde con un trattino per diminuire, o sulla freccia verde per le mappe adiacenti.


METAR-TAF: